DEL576L KLAX-KSFO
Flight info
| Callsign | DEL576L |
|---|---|
| Flight time | 0h 52m |
| Altitude | 32000 |
| Route | SUMMR2 STOKD SERFR SERFR4 |
| Aircraft | A20N/M-SDE2E3FGHIRWXY/LB1 |
Departure
| Time | 2026-04-24 06:07 |
|---|---|
| Airport | Los Angeles International Airport (KLAX) |
Arrival
| Time | 2026-04-24 06:59 |
|---|---|
| Airport | San Francisco International Airport (KSFO) |
| Time | Latitude | Longitude | Altitude | Speed | Heading |
|---|---|---|---|---|---|
| 2026-04-24 05:37 | 33.94707 | -118.40715 | 125 ft | 0 kts | 153° |
| 2026-04-24 05:38 | 33.94185 | -118.40149 | 125 ft | 0 kts | 263° |
| 2026-04-24 05:56 | 33.94186 | -118.40140 | 121 ft | 2 kts | 258° |
| 2026-04-24 05:56 | 33.94190 | -118.40120 | 124 ft | 2 kts | 251° |
| 2026-04-24 05:56 | 33.94197 | -118.40102 | 122 ft | 2 kts | 218° |
| 2026-04-24 05:56 | 33.94212 | -118.40095 | 123 ft | 2 kts | 176° |
| 2026-04-24 05:57 | 33.94218 | -118.40096 | 122 ft | 0 kts | 174° |
| 2026-04-24 05:59 | 33.94198 | -118.40093 | 121 ft | 9 kts | 174° |
| 2026-04-24 06:00 | 33.94081 | -118.40077 | 123 ft | 23 kts | 173° |
| 2026-04-24 06:00 | 33.93939 | -118.40053 | 123 ft | 10 kts | 172° |
| 2026-04-24 06:00 | 33.93883 | -118.40002 | 124 ft | 12 kts | 106° |
| 2026-04-24 06:00 | 33.93890 | -118.39890 | 123 ft | 17 kts | 82° |
| 2026-04-24 06:01 | 33.93908 | -118.39699 | 124 ft | 29 kts | 83° |
| 2026-04-24 06:01 | 33.93939 | -118.39405 | 121 ft | 39 kts | 82° |
| 2026-04-24 06:01 | 33.93975 | -118.39046 | 125 ft | 47 kts | 83° |
| 2026-04-24 06:01 | 33.94018 | -118.38635 | 125 ft | 50 kts | 83° |
| 2026-04-24 06:02 | 33.94054 | -118.38282 | 124 ft | 34 kts | 82° |
| 2026-04-24 06:02 | 33.94071 | -118.38117 | 123 ft | 18 kts | 83° |
| 2026-04-24 06:02 | 33.94070 | -118.38018 | 125 ft | 0 kts | 116° |
| 2026-04-24 06:02 | 33.94053 | -118.38002 | 125 ft | 10 kts | 148° |
| 2026-04-24 06:03 | 33.93984 | -118.38038 | 125 ft | 13 kts | 264° |
| 2026-04-24 06:03 | 33.93979 | -118.38083 | 124 ft | 0 kts | 262° |
| 2026-04-24 06:06 | 33.93978 | -118.38093 | 125 ft | 9 kts | 262° |
| 2026-04-24 06:06 | 33.93959 | -118.38266 | 123 ft | 55 kts | 263° |
| 2026-04-24 06:07 | 33.93885 | -118.38990 | 123 ft | 116 kts | 263° |
| 2026-04-24 06:07 | 33.93767 | -118.40161 | 178 ft | 155 kts | 263° |
| 2026-04-24 06:07 | 33.93653 | -118.41438 | 741 ft | 150 kts | 263° |
| 2026-04-24 06:07 | 33.93558 | -118.42657 | 1341 ft | 149 kts | 265° |
| 2026-04-24 06:08 | 33.93437 | -118.43968 | 1779 ft | 160 kts | 262° |
| 2026-04-24 06:08 | 33.93273 | -118.45354 | 2151 ft | 178 kts | 262° |
| 2026-04-24 06:08 | 33.93092 | -118.46954 | 2589 ft | 198 kts | 263° |
| 2026-04-24 06:08 | 33.92933 | -118.48680 | 3047 ft | 222 kts | 264° |
| 2026-04-24 06:09 | 33.92771 | -118.50647 | 3699 ft | 243 kts | 264° |
| 2026-04-24 06:09 | 33.92602 | -118.52758 | 4393 ft | 262 kts | 264° |
| 2026-04-24 06:09 | 33.92423 | -118.54965 | 5375 ft | 267 kts | 264° |
| 2026-04-24 06:09 | 33.92239 | -118.57218 | 6339 ft | 275 kts | 264° |
| 2026-04-24 06:10 | 33.92048 | -118.59525 | 7359 ft | 275 kts | 264° |
| 2026-04-24 06:10 | 33.91857 | -118.61816 | 8448 ft | 276 kts | 264° |
| 2026-04-24 06:10 | 33.91759 | -118.64149 | 9525 ft | 277 kts | 270° |
| 2026-04-24 06:11 | 33.91755 | -118.68912 | 10454 ft | 290 kts | 270° |
| 2026-04-24 06:11 | 33.91748 | -118.71274 | 10283 ft | 282 kts | 270° |
| 2026-04-24 06:11 | 33.91738 | -118.73648 | 10091 ft | 285 kts | 270° |
| 2026-04-24 06:11 | 33.91728 | -118.76077 | 10114 ft | 293 kts | 270° |
| 2026-04-24 06:12 | 33.91717 | -118.78592 | 10278 ft | 315 kts | 270° |
| 2026-04-24 06:12 | 33.91704 | -118.81293 | 10795 ft | 326 kts | 270° |
| 2026-04-24 06:12 | 33.91693 | -118.84028 | 11411 ft | 329 kts | 270° |
| 2026-04-24 06:12 | 33.91746 | -118.86816 | 12462 ft | 328 kts | 272° |
| 2026-04-24 06:13 | 33.91843 | -118.89596 | 13431 ft | 330 kts | 272° |
| 2026-04-24 06:13 | 33.91943 | -118.92337 | 14270 ft | 333 kts | 272° |
| 2026-04-24 06:13 | 33.92041 | -118.95161 | 15079 ft | 335 kts | 272° |
| 2026-04-24 06:13 | 33.92134 | -118.97983 | 15872 ft | 338 kts | 273° |
| 2026-04-24 06:14 | 33.92485 | -119.00796 | 16644 ft | 343 kts | 283° |
| 2026-04-24 06:14 | 33.93285 | -119.03519 | 17397 ft | 348 kts | 293° |
| 2026-04-24 06:14 | 33.94464 | -119.05999 | 18132 ft | 354 kts | 299° |
| 2026-04-24 06:14 | 33.95786 | -119.08521 | 18795 ft | 357 kts | 299° |
| 2026-04-24 06:15 | 33.97109 | -119.11071 | 19458 ft | 360 kts | 298° |
| 2026-04-24 06:15 | 33.98436 | -119.13640 | 20113 ft | 363 kts | 298° |
| 2026-04-24 06:15 | 33.99842 | -119.16244 | 20761 ft | 368 kts | 303° |
| 2026-04-24 06:15 | 34.01511 | -119.18625 | 21392 ft | 375 kts | 310° |
| 2026-04-24 06:16 | 34.03474 | -119.20747 | 22015 ft | 383 kts | 317° |
| 2026-04-24 06:16 | 34.05652 | -119.22626 | 22630 ft | 388 kts | 320° |
| 2026-04-24 06:16 | 34.07869 | -119.24518 | 23229 ft | 392 kts | 320° |
| 2026-04-24 06:16 | 34.10098 | -119.26433 | 23766 ft | 395 kts | 320° |
| 2026-04-24 06:17 | 34.12375 | -119.28394 | 24328 ft | 397 kts | 320° |
| 2026-04-24 06:17 | 34.14626 | -119.30333 | 24872 ft | 399 kts | 319° |
| 2026-04-24 06:17 | 34.16894 | -119.32288 | 25375 ft | 402 kts | 319° |
| 2026-04-24 06:17 | 34.19178 | -119.34257 | 25884 ft | 404 kts | 319° |
| 2026-04-24 06:18 | 34.21470 | -119.36235 | 26369 ft | 407 kts | 319° |
| 2026-04-24 06:18 | 34.23778 | -119.38227 | 26835 ft | 409 kts | 319° |
| 2026-04-24 06:18 | 34.26105 | -119.40237 | 27304 ft | 412 kts | 319° |
| 2026-04-24 06:18 | 34.28439 | -119.42255 | 27753 ft | 414 kts | 319° |
| 2026-04-24 06:19 | 34.30791 | -119.44290 | 28177 ft | 417 kts | 319° |
| 2026-04-24 06:19 | 34.33158 | -119.46339 | 28592 ft | 419 kts | 319° |
| 2026-04-24 06:19 | 34.35567 | -119.48426 | 29003 ft | 422 kts | 319° |
| 2026-04-24 06:19 | 34.37963 | -119.50503 | 29391 ft | 424 kts | 319° |
| 2026-04-24 06:20 | 34.40347 | -119.52620 | 29785 ft | 425 kts | 316° |
| 2026-04-24 06:20 | 34.42551 | -119.54988 | 30155 ft | 423 kts | 310° |
| 2026-04-24 06:20 | 34.44611 | -119.57539 | 30527 ft | 424 kts | 309° |
| 2026-04-24 06:20 | 34.46707 | -119.60117 | 30951 ft | 424 kts | 309° |
| 2026-04-24 06:21 | 34.48800 | -119.62684 | 31401 ft | 423 kts | 309° |
| 2026-04-24 06:21 | 34.50872 | -119.65223 | 31748 ft | 420 kts | 309° |
| 2026-04-24 06:21 | 34.52918 | -119.67737 | 31884 ft | 417 kts | 309° |
| 2026-04-24 06:22 | 34.56978 | -119.72744 | 31981 ft | 416 kts | 309° |
| 2026-04-24 06:22 | 34.61068 | -119.77800 | 31985 ft | 417 kts | 309° |
| 2026-04-24 06:23 | 34.65138 | -119.82837 | 32000 ft | 418 kts | 309° |
| 2026-04-24 06:23 | 34.69240 | -119.87919 | 32001 ft | 419 kts | 309° |
| 2026-04-24 06:24 | 34.73320 | -119.92981 | 32011 ft | 419 kts | 309° |
| 2026-04-24 06:24 | 34.76729 | -119.97216 | 32025 ft | 418 kts | 309° |
| 2026-04-24 06:25 | 34.80847 | -120.02339 | 32019 ft | 418 kts | 309° |
| 2026-04-24 06:25 | 34.84930 | -120.07424 | 32044 ft | 421 kts | 309° |
| 2026-04-24 06:26 | 34.89019 | -120.12525 | 32039 ft | 420 kts | 309° |
| 2026-04-24 06:26 | 34.93100 | -120.17627 | 32052 ft | 422 kts | 309° |
| 2026-04-24 06:27 | 34.97222 | -120.22786 | 32051 ft | 422 kts | 309° |
| 2026-04-24 06:27 | 35.01347 | -120.27955 | 32054 ft | 422 kts | 309° |
| 2026-04-24 06:28 | 35.05440 | -120.33094 | 32050 ft | 422 kts | 309° |
| 2026-04-24 06:28 | 35.09566 | -120.38269 | 32055 ft | 423 kts | 310° |
| 2026-04-24 06:29 | 35.13917 | -120.43161 | 32054 ft | 426 kts | 313° |
| 2026-04-24 06:29 | 35.18386 | -120.48068 | 32042 ft | 426 kts | 313° |
| 2026-04-24 06:30 | 35.22767 | -120.52956 | 32033 ft | 427 kts | 313° |
| 2026-04-24 06:30 | 35.27149 | -120.57883 | 32043 ft | 429 kts | 313° |
| 2026-04-24 06:31 | 35.31547 | -120.62835 | 32044 ft | 429 kts | 313° |
| 2026-04-24 06:31 | 35.35968 | -120.67820 | 32051 ft | 430 kts | 313° |
| 2026-04-24 06:32 | 35.40401 | -120.72824 | 32054 ft | 430 kts | 313° |
| 2026-04-24 06:32 | 35.44804 | -120.77802 | 32058 ft | 430 kts | 313° |
| 2026-04-24 06:33 | 35.49274 | -120.82689 | 32074 ft | 433 kts | 318° |
| 2026-04-24 06:33 | 35.54128 | -120.87165 | 32075 ft | 434 kts | 318° |
| 2026-04-24 06:34 | 35.58947 | -120.91641 | 32071 ft | 434 kts | 318° |
| 2026-04-24 06:34 | 35.63833 | -120.96185 | 32069 ft | 435 kts | 318° |
| 2026-04-24 06:35 | 35.68689 | -121.00707 | 32071 ft | 436 kts | 318° |
| 2026-04-24 06:35 | 35.73526 | -121.05217 | 32070 ft | 437 kts | 319° |
| 2026-04-24 06:36 | 35.78369 | -121.09739 | 32075 ft | 438 kts | 319° |
| 2026-04-24 06:36 | 35.83227 | -121.14282 | 32082 ft | 439 kts | 319° |
| 2026-04-24 06:37 | 35.88127 | -121.18872 | 32090 ft | 440 kts | 319° |
| 2026-04-24 06:37 | 35.93009 | -121.23452 | 32097 ft | 441 kts | 319° |
| 2026-04-24 06:38 | 35.97928 | -121.28075 | 32100 ft | 442 kts | 319° |
| 2026-04-24 06:38 | 36.02031 | -121.31936 | 32095 ft | 442 kts | 319° |
| 2026-04-24 06:39 | 36.06965 | -121.36543 | 32090 ft | 443 kts | 322° |
| 2026-04-24 06:39 | 36.12186 | -121.40630 | 32095 ft | 445 kts | 324° |
| 2026-04-24 06:40 | 36.17451 | -121.44737 | 32098 ft | 445 kts | 324° |
| 2026-04-24 06:40 | 36.22722 | -121.48858 | 32101 ft | 445 kts | 324° |
| 2026-04-24 06:41 | 36.27998 | -121.52988 | 32107 ft | 446 kts | 324° |
| 2026-04-24 06:41 | 36.33312 | -121.57154 | 32105 ft | 446 kts | 324° |
| 2026-04-24 06:42 | 36.38542 | -121.61261 | 31891 ft | 443 kts | 324° |
| 2026-04-24 06:42 | 36.41038 | -121.63223 | 31328 ft | 443 kts | 324° |
| 2026-04-24 06:42 | 36.43649 | -121.65279 | 30536 ft | 445 kts | 324° |
| 2026-04-24 06:42 | 36.46285 | -121.67355 | 30074 ft | 438 kts | 324° |
| 2026-04-24 06:43 | 36.48821 | -121.69348 | 29699 ft | 427 kts | 324° |
| 2026-04-24 06:43 | 36.51321 | -121.71318 | 29086 ft | 423 kts | 324° |
| 2026-04-24 06:43 | 36.53798 | -121.73276 | 28445 ft | 420 kts | 324° |
| 2026-04-24 06:43 | 36.56286 | -121.75244 | 27831 ft | 417 kts | 324° |
| 2026-04-24 06:44 | 36.58722 | -121.77172 | 27240 ft | 413 kts | 324° |
| 2026-04-24 06:44 | 36.61132 | -121.79080 | 26424 ft | 407 kts | 324° |
| 2026-04-24 06:44 | 36.63377 | -121.80859 | 25637 ft | 404 kts | 323° |
| 2026-04-24 06:44 | 36.65768 | -121.82754 | 24827 ft | 399 kts | 323° |
| 2026-04-24 06:45 | 36.68099 | -121.84604 | 24055 ft | 395 kts | 323° |
| 2026-04-24 06:45 | 36.70403 | -121.86434 | 23221 ft | 391 kts | 323° |
| 2026-04-24 06:45 | 36.72725 | -121.88177 | 22366 ft | 389 kts | 329° |
| 2026-04-24 06:45 | 36.75234 | -121.89542 | 21530 ft | 387 kts | 338° |
| 2026-04-24 06:46 | 36.77815 | -121.90459 | 20734 ft | 385 kts | 345° |
| 2026-04-24 06:46 | 36.80452 | -121.91172 | 19962 ft | 380 kts | 345° |
| 2026-04-24 06:46 | 36.83018 | -121.91888 | 19218 ft | 376 kts | 346° |
| 2026-04-24 06:46 | 36.85557 | -121.92604 | 18494 ft | 372 kts | 346° |
| 2026-04-24 06:47 | 36.88066 | -121.93312 | 17703 ft | 368 kts | 346° |
| 2026-04-24 06:47 | 36.90583 | -121.94020 | 16862 ft | 364 kts | 346° |
| 2026-04-24 06:47 | 36.93054 | -121.94712 | 15968 ft | 364 kts | 347° |
| 2026-04-24 06:47 | 36.95512 | -121.95439 | 15214 ft | 360 kts | 343° |
| 2026-04-24 06:48 | 36.97888 | -121.96369 | 14502 ft | 355 kts | 342° |
| 2026-04-24 06:48 | 37.00260 | -121.97300 | 13789 ft | 350 kts | 343° |
| 2026-04-24 06:48 | 37.02559 | -121.98196 | 13010 ft | 347 kts | 343° |
| 2026-04-24 06:48 | 37.04928 | -121.99118 | 12232 ft | 342 kts | 342° |
| 2026-04-24 06:49 | 37.07163 | -121.99989 | 11497 ft | 339 kts | 342° |
| 2026-04-24 06:49 | 37.09401 | -122.00862 | 10787 ft | 335 kts | 342° |
| 2026-04-24 06:49 | 37.11645 | -122.01739 | 10128 ft | 331 kts | 342° |
| 2026-04-24 06:49 | 37.13840 | -122.02596 | 9833 ft | 315 kts | 342° |
| 2026-04-24 06:50 | 37.15851 | -122.03381 | 9635 ft | 299 kts | 342° |
| 2026-04-24 06:50 | 37.17731 | -122.04351 | 9299 ft | 286 kts | 325° |
| 2026-04-24 06:50 | 37.18765 | -122.05475 | 9059 ft | 287 kts | 314° |
| 2026-04-24 06:50 | 37.20132 | -122.07296 | 8790 ft | 286 kts | 313° |
| 2026-04-24 06:51 | 37.21487 | -122.09111 | 8440 ft | 284 kts | 313° |
| 2026-04-24 06:51 | 37.22840 | -122.10919 | 8068 ft | 282 kts | 313° |
| 2026-04-24 06:51 | 37.24427 | -122.12376 | 7665 ft | 281 kts | 337° |
| 2026-04-24 06:51 | 37.26359 | -122.12805 | 7276 ft | 279 kts | 1° |
| 2026-04-24 06:52 | 37.28303 | -122.12689 | 7037 ft | 272 kts | 3° |
| 2026-04-24 06:52 | 37.30222 | -122.12634 | 6726 ft | 268 kts | 355° |
| 2026-04-24 06:52 | 37.32108 | -122.12858 | 6270 ft | 271 kts | 354° |
| 2026-04-24 06:52 | 37.33997 | -122.13096 | 6073 ft | 277 kts | 354° |
| 2026-04-24 06:53 | 37.35906 | -122.13336 | 5987 ft | 275 kts | 354° |
| 2026-04-24 06:53 | 37.37793 | -122.13572 | 5977 ft | 268 kts | 354° |
| 2026-04-24 06:53 | 37.39634 | -122.13800 | 5983 ft | 252 kts | 354° |
| 2026-04-24 06:53 | 37.41296 | -122.14006 | 5977 ft | 237 kts | 354° |
| 2026-04-24 06:54 | 37.42931 | -122.14208 | 5975 ft | 224 kts | 354° |
| 2026-04-24 06:54 | 37.44517 | -122.14404 | 5981 ft | 230 kts | 354° |
| 2026-04-24 06:54 | 37.46060 | -122.14781 | 5957 ft | 226 kts | 344° |
| 2026-04-24 06:54 | 37.47595 | -122.15304 | 5712 ft | 228 kts | 345° |
| 2026-04-24 06:55 | 37.49139 | -122.15819 | 5179 ft | 233 kts | 345° |
| 2026-04-24 06:55 | 37.50734 | -122.16345 | 4551 ft | 241 kts | 344° |
| 2026-04-24 06:55 | 37.52374 | -122.16924 | 3940 ft | 246 kts | 337° |
| 2026-04-24 06:55 | 37.53771 | -122.18127 | 3400 ft | 244 kts | 311° |
| 2026-04-24 06:56 | 37.54862 | -122.19831 | 2841 ft | 245 kts | 308° |
| 2026-04-24 06:56 | 37.55893 | -122.21515 | 2424 ft | 239 kts | 294° |
| 2026-04-24 06:56 | 37.56433 | -122.23440 | 2211 ft | 224 kts | 288° |
| 2026-04-24 06:56 | 37.56987 | -122.25231 | 1926 ft | 214 kts | 294° |
| 2026-04-24 06:57 | 37.57639 | -122.26882 | 1645 ft | 206 kts | 297° |
| 2026-04-24 06:57 | 37.58304 | -122.28438 | 1359 ft | 197 kts | 296° |
| 2026-04-24 06:57 | 37.58947 | -122.29980 | 1109 ft | 193 kts | 297° |
| 2026-04-24 06:57 | 37.59577 | -122.31483 | 828 ft | 191 kts | 297° |
| 2026-04-24 06:58 | 37.60205 | -122.32978 | 549 ft | 192 kts | 296° |
| 2026-04-24 06:58 | 37.60617 | -122.33958 | 269 ft | 192 kts | 296° |
| 2026-04-24 06:58 | 37.61222 | -122.35393 | 108 ft | 173 kts | 295° |
| 2026-04-24 06:58 | 37.61899 | -122.37022 | 17 ft | 130 kts | 298° |
| 2026-04-24 06:59 | 37.62158 | -122.37647 | 19 ft | 104 kts | 298° |
| 2026-04-24 06:59 | 37.62407 | -122.38222 | 19 ft | 62 kts | 297° |
| 2026-04-24 06:59 | 37.62499 | -122.38504 | 18 ft | 30 kts | 277° |
| 2026-04-24 06:59 | 37.62501 | -122.38676 | 16 ft | 5 kts | 269° |
| 2026-04-24 07:00 | 37.62500 | -122.38739 | 16 ft | 9 kts | 268° |
| 2026-04-24 07:00 | 37.62499 | -122.38764 | 16 ft | 0 kts | 268° |
| 2026-04-24 07:01 | 37.62499 | -122.38770 | 16 ft | 3 kts | 268° |
| 2026-04-24 07:01 | 37.62487 | -122.38831 | 16 ft | 11 kts | 241° |
| 2026-04-24 07:02 | 37.62410 | -122.38904 | 15 ft | 17 kts | 205° |
| 2026-04-24 07:02 | 37.62294 | -122.38958 | 13 ft | 15 kts | 160° |
| 2026-04-24 07:02 | 37.62269 | -122.38922 | 13 ft | 0 kts | 103° |
| 2026-04-24 07:03 | 37.62268 | -122.38921 | 12 ft | 0 kts | 104° |
| 2026-04-24 07:03 | 37.62255 | -122.38886 | 14 ft | 11 kts | 122° |
| 2026-04-24 07:03 | 37.62186 | -122.38803 | 12 ft | 12 kts | 169° |
| 2026-04-24 07:04 | 37.62117 | -122.38838 | 13 ft | 11 kts | 208° |
| 2026-04-24 07:04 | 37.62098 | -122.38852 | 13 ft | 1 kts | 208° |
| 2026-04-24 07:04 | 37.62094 | -122.38854 | 24 ft | 0 kts | 208° |